Terminal Aerodrome Forecast
Issued by NWS

Home | Current Version | Previous Version | Text Only | Print | Product List | Glossary On
Versions: 1 2 3 4 5 6 7 8 9 10 11 12 13 14 15 16 17 18 19 20 21 22 23 24 25 26 27 28 29 30
642
FTUS45 KSLC 281728
TAFOGD
TAF
KOGD 281728Z 2818/2918 32012G19KT P6SM VCSH SCT020 BKN040
     FM290300 04009KT P6SM SCT040 BKN080
     FM290700 05010G20KT P6SM SCT040 BKN080
     FM291600 36009KT P6SM SCT040 BKN080=

USA.gov is the U.S. government's official web portal to all federal, state and local government web resources and services.